LNK131X FAOR-FYWB
Flight info
| Callsign | LNK131X |
|---|---|
| Flight time | 2h 11m |
| Altitude | 36000 |
| Route | RAGUL1D RAGUL DCT ESPUV DCT EPRIS UL686 APGIB UN183 UVARA |
| Aircraft | E190/M-SDE3GILORVW/S |
Departure
| Time | 2026-05-06 05:38 |
|---|---|
| Airport | O.R. Tambo International Airport (FAOR) |
Arrival
| Time | 2026-05-06 07:49 |
|---|---|
| Airport | Walvis Bay International Airport (FYWB) |
| Time | Latitude | Longitude | Altitude | Speed | Heading |
|---|---|---|---|---|---|
| 2026-05-06 05:18 | -26.13358 | 28.23484 | 5548 ft | 0 kts | 96° |
| 2026-05-06 05:28 | -26.13357 | 28.23483 | 5547 ft | 2 kts | 96° |
| 2026-05-06 05:28 | -26.13355 | 28.23456 | 5545 ft | 4 kts | 96° |
| 2026-05-06 05:28 | -26.13352 | 28.23426 | 5545 ft | 4 kts | 96° |
| 2026-05-06 05:29 | -26.13350 | 28.23403 | 5546 ft | 4 kts | 62° |
| 2026-05-06 05:29 | -26.13368 | 28.23386 | 5547 ft | 4 kts | 12° |
| 2026-05-06 05:29 | -26.13373 | 28.23385 | 5547 ft | 4 kts | 6° |
| 2026-05-06 05:29 | -26.13346 | 28.23388 | 5546 ft | 4 kts | 6° |
| 2026-05-06 05:30 | -26.13319 | 28.23391 | 5545 ft | 4 kts | 6° |
| 2026-05-06 05:30 | -26.13299 | 28.23394 | 5548 ft | 0 kts | 6° |
| 2026-05-06 05:32 | -26.13296 | 28.23394 | 5547 ft | 2 kts | 6° |
| 2026-05-06 05:33 | -26.13257 | 28.23399 | 5548 ft | 10 kts | 7° |
| 2026-05-06 05:33 | -26.13180 | 28.23408 | 5545 ft | 11 kts | 5° |
| 2026-05-06 05:33 | -26.13115 | 28.23441 | 5545 ft | 11 kts | 64° |
| 2026-05-06 05:33 | -26.13121 | 28.23542 | 5549 ft | 15 kts | 97° |
| 2026-05-06 05:34 | -26.13127 | 28.23676 | 5545 ft | 18 kts | 73° |
| 2026-05-06 05:34 | -26.13017 | 28.23736 | 5543 ft | 19 kts | 14° |
| 2026-05-06 05:34 | -26.12879 | 28.23779 | 5544 ft | 22 kts | 16° |
| 2026-05-06 05:34 | -26.12724 | 28.23829 | 5542 ft | 24 kts | 16° |
| 2026-05-06 05:35 | -26.12560 | 28.23879 | 5539 ft | 26 kts | 15° |
| 2026-05-06 05:35 | -26.12381 | 28.23934 | 5536 ft | 27 kts | 15° |
| 2026-05-06 05:35 | -26.12189 | 28.23994 | 5532 ft | 30 kts | 16° |
| 2026-05-06 05:35 | -26.11984 | 28.24057 | 5530 ft | 32 kts | 15° |
| 2026-05-06 05:36 | -26.11763 | 28.24125 | 5523 ft | 33 kts | 16° |
| 2026-05-06 05:36 | -26.11548 | 28.24192 | 5522 ft | 32 kts | 15° |
| 2026-05-06 05:36 | -26.11333 | 28.24258 | 5521 ft | 31 kts | 15° |
| 2026-05-06 05:36 | -26.11120 | 28.24323 | 5514 ft | 33 kts | 16° |
| 2026-05-06 05:37 | -26.10922 | 28.24404 | 5511 ft | 25 kts | 51° |
| 2026-05-06 05:37 | -26.10849 | 28.24571 | 5506 ft | 18 kts | 102° |
| 2026-05-06 05:37 | -26.10952 | 28.24577 | 5509 ft | 16 kts | 195° |
| 2026-05-06 05:37 | -26.11159 | 28.24516 | 5518 ft | 57 kts | 196° |
| 2026-05-06 05:38 | -26.11725 | 28.24337 | 5527 ft | 112 kts | 195° |
| 2026-05-06 05:38 | -26.12644 | 28.24055 | 5542 ft | 160 kts | 196° |
| 2026-05-06 05:38 | -26.13801 | 28.23707 | 5952 ft | 176 kts | 197° |
| 2026-05-06 05:38 | -26.14986 | 28.23375 | 6777 ft | 180 kts | 196° |
| 2026-05-06 05:39 | -26.16271 | 28.23055 | 7285 ft | 198 kts | 196° |
| 2026-05-06 05:39 | -26.17695 | 28.22732 | 7804 ft | 221 kts | 196° |
| 2026-05-06 05:39 | -26.19185 | 28.22389 | 7779 ft | 228 kts | 200° |
| 2026-05-06 05:39 | -26.20816 | 28.21759 | 7594 ft | 262 kts | 204° |
| 2026-05-06 05:40 | -26.22488 | 28.21085 | 8657 ft | 253 kts | 205° |
| 2026-05-06 05:40 | -26.24217 | 28.20464 | 9079 ft | 270 kts | 202° |
| 2026-05-06 05:40 | -26.26097 | 28.19854 | 9180 ft | 289 kts | 202° |
| 2026-05-06 05:40 | -26.27983 | 28.19122 | 9186 ft | 277 kts | 215° |
| 2026-05-06 05:41 | -26.29354 | 28.17824 | 9139 ft | 253 kts | 240° |
| 2026-05-06 05:41 | -26.29969 | 28.16072 | 9259 ft | 235 kts | 266° |
| 2026-05-06 05:41 | -26.29990 | 28.14205 | 9848 ft | 247 kts | 272° |
| 2026-05-06 05:41 | -26.30007 | 28.12256 | 10360 ft | 253 kts | 272° |
| 2026-05-06 05:42 | -26.30004 | 28.10313 | 10851 ft | 254 kts | 275° |
| 2026-05-06 05:42 | -26.29954 | 28.08354 | 11367 ft | 253 kts | 277° |
| 2026-05-06 05:42 | -26.29872 | 28.06382 | 11877 ft | 251 kts | 278° |
| 2026-05-06 05:42 | -26.29775 | 28.04459 | 12401 ft | 251 kts | 280° |
| 2026-05-06 05:43 | -26.29662 | 28.02529 | 12947 ft | 249 kts | 281° |
| 2026-05-06 05:43 | -26.29532 | 28.00610 | 13485 ft | 245 kts | 282° |
| 2026-05-06 05:43 | -26.29387 | 27.98712 | 14026 ft | 243 kts | 283° |
| 2026-05-06 05:43 | -26.29237 | 27.96833 | 14511 ft | 248 kts | 284° |
| 2026-05-06 05:44 | -26.29076 | 27.94916 | 15026 ft | 250 kts | 282° |
| 2026-05-06 05:44 | -26.29325 | 27.92897 | 15514 ft | 284 kts | 263° |
| 2026-05-06 05:44 | -26.30178 | 27.90787 | 16053 ft | 305 kts | 257° |
| 2026-05-06 05:44 | -26.31081 | 27.88622 | 16866 ft | 309 kts | 258° |
| 2026-05-06 05:45 | -26.31992 | 27.86466 | 17693 ft | 313 kts | 257° |
| 2026-05-06 05:45 | -26.32953 | 27.84257 | 18476 ft | 318 kts | 257° |
| 2026-05-06 05:45 | -26.33940 | 27.82028 | 19159 ft | 321 kts | 257° |
| 2026-05-06 05:45 | -26.34941 | 27.79782 | 19850 ft | 324 kts | 256° |
| 2026-05-06 05:46 | -26.35943 | 27.77542 | 20529 ft | 326 kts | 256° |
| 2026-05-06 05:46 | -26.36956 | 27.75289 | 21186 ft | 329 kts | 256° |
| 2026-05-06 05:46 | -26.37997 | 27.72981 | 21853 ft | 332 kts | 256° |
| 2026-05-06 05:46 | -26.39046 | 27.70658 | 22491 ft | 335 kts | 256° |
| 2026-05-06 05:47 | -26.40094 | 27.68343 | 23078 ft | 339 kts | 256° |
| 2026-05-06 05:47 | -26.41170 | 27.65977 | 23692 ft | 341 kts | 256° |
| 2026-05-06 05:47 | -26.42243 | 27.63623 | 24166 ft | 344 kts | 256° |
| 2026-05-06 05:47 | -26.43340 | 27.61218 | 24622 ft | 347 kts | 256° |
| 2026-05-06 05:48 | -26.44284 | 27.58795 | 25033 ft | 336 kts | 266° |
| 2026-05-06 05:48 | -26.44491 | 27.56276 | 25486 ft | 319 kts | 282° |
| 2026-05-06 05:48 | -26.44103 | 27.53860 | 25953 ft | 316 kts | 288° |
| 2026-05-06 05:48 | -26.43712 | 27.51446 | 26361 ft | 320 kts | 286° |
| 2026-05-06 05:49 | -26.43326 | 27.48979 | 26782 ft | 323 kts | 287° |
| 2026-05-06 05:49 | -26.42889 | 27.46520 | 27189 ft | 324 kts | 288° |
| 2026-05-06 05:49 | -26.42415 | 27.44035 | 27611 ft | 326 kts | 288° |
| 2026-05-06 05:49 | -26.41931 | 27.41581 | 28034 ft | 328 kts | 288° |
| 2026-05-06 05:50 | -26.41430 | 27.39074 | 28435 ft | 331 kts | 289° |
| 2026-05-06 05:50 | -26.40930 | 27.36586 | 28821 ft | 333 kts | 289° |
| 2026-05-06 05:50 | -26.40418 | 27.34051 | 29194 ft | 335 kts | 289° |
| 2026-05-06 05:50 | -26.39902 | 27.31500 | 29565 ft | 337 kts | 289° |
| 2026-05-06 05:51 | -26.39381 | 27.28936 | 29904 ft | 339 kts | 289° |
| 2026-05-06 05:51 | -26.38859 | 27.26376 | 30229 ft | 341 kts | 289° |
| 2026-05-06 05:51 | -26.38329 | 27.23780 | 30489 ft | 343 kts | 289° |
| 2026-05-06 05:51 | -26.37794 | 27.21170 | 30750 ft | 346 kts | 289° |
| 2026-05-06 05:52 | -26.37261 | 27.18575 | 30999 ft | 348 kts | 289° |
| 2026-05-06 05:52 | -26.36716 | 27.15924 | 31262 ft | 350 kts | 289° |
| 2026-05-06 05:52 | -26.36165 | 27.13257 | 31519 ft | 352 kts | 288° |
| 2026-05-06 05:52 | -26.35619 | 27.10607 | 31764 ft | 354 kts | 288° |
| 2026-05-06 05:53 | -26.35061 | 27.07909 | 32017 ft | 357 kts | 288° |
| 2026-05-06 05:53 | -26.34512 | 27.05230 | 32252 ft | 359 kts | 288° |
| 2026-05-06 05:53 | -26.33946 | 27.02501 | 32539 ft | 360 kts | 288° |
| 2026-05-06 05:53 | -26.33381 | 26.99783 | 32896 ft | 359 kts | 288° |
| 2026-05-06 05:54 | -26.32819 | 26.97063 | 33192 ft | 360 kts | 288° |
| 2026-05-06 05:54 | -26.32259 | 26.94373 | 33487 ft | 360 kts | 288° |
| 2026-05-06 05:54 | -26.31693 | 26.91652 | 33781 ft | 360 kts | 288° |
| 2026-05-06 05:54 | -26.31122 | 26.88915 | 34070 ft | 360 kts | 288° |
| 2026-05-06 05:55 | -26.30551 | 26.86186 | 34329 ft | 360 kts | 288° |
| 2026-05-06 05:55 | -26.29988 | 26.83492 | 34585 ft | 360 kts | 288° |
| 2026-05-06 05:55 | -26.29419 | 26.80776 | 34827 ft | 360 kts | 288° |
| 2026-05-06 05:55 | -26.28850 | 26.78064 | 35070 ft | 359 kts | 288° |
| 2026-05-06 05:56 | -26.28470 | 26.76260 | 35224 ft | 359 kts | 288° |
| 2026-05-06 05:56 | -26.27712 | 26.72666 | 35526 ft | 359 kts | 287° |
| 2026-05-06 05:56 | -26.27327 | 26.70840 | 35672 ft | 359 kts | 287° |
| 2026-05-06 05:56 | -26.26759 | 26.68156 | 35885 ft | 358 kts | 287° |
| 2026-05-06 05:57 | -26.26189 | 26.65458 | 36246 ft | 350 kts | 287° |
| 2026-05-06 05:57 | -26.25632 | 26.62818 | 36243 ft | 355 kts | 287° |
| 2026-05-06 05:57 | -26.24445 | 26.57362 | 36093 ft | 369 kts | 287° |
| 2026-05-06 05:58 | -26.23228 | 26.51762 | 36119 ft | 378 kts | 287° |
| 2026-05-06 05:58 | -26.21991 | 26.46044 | 36100 ft | 382 kts | 287° |
| 2026-05-06 05:59 | -26.20745 | 26.40298 | 36104 ft | 382 kts | 287° |
| 2026-05-06 05:59 | -26.19491 | 26.34530 | 36103 ft | 382 kts | 287° |
| 2026-05-06 06:00 | -26.18243 | 26.28800 | 36100 ft | 382 kts | 287° |
| 2026-05-06 06:00 | -26.16991 | 26.23073 | 36098 ft | 382 kts | 287° |
| 2026-05-06 06:01 | -26.15737 | 26.17340 | 36100 ft | 382 kts | 287° |
| 2026-05-06 06:01 | -26.14479 | 26.11605 | 36094 ft | 382 kts | 286° |
| 2026-05-06 06:02 | -26.13214 | 26.05845 | 36098 ft | 382 kts | 286° |
| 2026-05-06 06:02 | -26.11945 | 26.00083 | 36095 ft | 382 kts | 286° |
| 2026-05-06 06:03 | -26.10682 | 25.94358 | 36096 ft | 382 kts | 286° |
| 2026-05-06 06:03 | -26.09408 | 25.88591 | 36092 ft | 382 kts | 286° |
| 2026-05-06 06:04 | -26.08141 | 25.82873 | 36090 ft | 382 kts | 286° |
| 2026-05-06 06:04 | -26.06868 | 25.77138 | 36094 ft | 382 kts | 286° |
| 2026-05-06 06:05 | -26.05596 | 25.71417 | 36096 ft | 382 kts | 286° |
| 2026-05-06 06:05 | -26.04311 | 25.65649 | 36095 ft | 382 kts | 286° |
| 2026-05-06 06:06 | -26.03032 | 25.59920 | 36101 ft | 382 kts | 285° |
| 2026-05-06 06:06 | -26.01767 | 25.54199 | 36098 ft | 382 kts | 285° |
| 2026-05-06 06:07 | -26.00474 | 25.48472 | 36100 ft | 382 kts | 285° |
| 2026-05-06 06:07 | -25.99185 | 25.42754 | 36103 ft | 382 kts | 285° |
| 2026-05-06 06:08 | -25.97897 | 25.37034 | 36101 ft | 382 kts | 285° |
| 2026-05-06 06:08 | -25.96603 | 25.31292 | 36104 ft | 382 kts | 285° |
| 2026-05-06 06:09 | -25.95312 | 25.25582 | 36103 ft | 382 kts | 285° |
| 2026-05-06 06:09 | -25.94021 | 25.19876 | 36107 ft | 382 kts | 285° |
| 2026-05-06 06:10 | -25.92718 | 25.14130 | 36115 ft | 382 kts | 285° |
| 2026-05-06 06:10 | -25.91421 | 25.08425 | 36119 ft | 382 kts | 285° |
| 2026-05-06 06:11 | -25.90122 | 25.02718 | 36117 ft | 382 kts | 285° |
| 2026-05-06 06:11 | -25.88813 | 24.96981 | 36120 ft | 382 kts | 285° |
| 2026-05-06 06:12 | -25.87505 | 24.91256 | 36115 ft | 382 kts | 285° |
| 2026-05-06 06:12 | -25.86193 | 24.85528 | 36130 ft | 382 kts | 285° |
| 2026-05-06 06:13 | -25.84890 | 24.79850 | 36131 ft | 382 kts | 284° |
| 2026-05-06 06:13 | -25.83572 | 24.74114 | 36134 ft | 381 kts | 284° |
| 2026-05-06 06:14 | -25.82199 | 24.68450 | 36141 ft | 382 kts | 287° |
| 2026-05-06 06:14 | -25.80620 | 24.62843 | 36133 ft | 381 kts | 287° |
| 2026-05-06 06:15 | -25.79057 | 24.57191 | 36135 ft | 382 kts | 286° |
| 2026-05-06 06:15 | -25.77518 | 24.51573 | 36137 ft | 382 kts | 286° |
| 2026-05-06 06:16 | -25.75976 | 24.45950 | 36141 ft | 382 kts | 286° |
| 2026-05-06 06:16 | -25.74428 | 24.40311 | 36145 ft | 382 kts | 286° |
| 2026-05-06 06:17 | -25.72876 | 24.34667 | 36153 ft | 382 kts | 286° |
| 2026-05-06 06:17 | -25.71331 | 24.29059 | 36151 ft | 381 kts | 286° |
| 2026-05-06 06:18 | -25.69783 | 24.23449 | 36156 ft | 381 kts | 286° |
| 2026-05-06 06:18 | -25.68223 | 24.17804 | 36150 ft | 381 kts | 286° |
| 2026-05-06 06:19 | -25.66671 | 24.12198 | 36148 ft | 381 kts | 286° |
| 2026-05-06 06:19 | -25.65116 | 24.06588 | 36149 ft | 381 kts | 286° |
| 2026-05-06 06:20 | -25.63551 | 24.00952 | 36152 ft | 381 kts | 285° |
| 2026-05-06 06:20 | -25.61996 | 23.95362 | 36147 ft | 381 kts | 285° |
| 2026-05-06 06:21 | -25.60426 | 23.89730 | 36147 ft | 382 kts | 285° |
| 2026-05-06 06:21 | -25.58861 | 23.84123 | 36158 ft | 382 kts | 285° |
| 2026-05-06 06:22 | -25.57297 | 23.78528 | 36167 ft | 382 kts | 285° |
| 2026-05-06 06:22 | -25.55719 | 23.72893 | 36166 ft | 382 kts | 285° |
| 2026-05-06 06:23 | -25.54153 | 23.67308 | 36163 ft | 382 kts | 285° |
| 2026-05-06 06:23 | -25.52571 | 23.61677 | 36167 ft | 382 kts | 285° |
| 2026-05-06 06:24 | -25.50997 | 23.56082 | 36166 ft | 382 kts | 285° |
| 2026-05-06 06:24 | -25.49411 | 23.50455 | 36172 ft | 382 kts | 285° |
| 2026-05-06 06:25 | -25.47830 | 23.44855 | 36177 ft | 382 kts | 285° |
| 2026-05-06 06:26 | -25.45443 | 23.36417 | 36173 ft | 382 kts | 285° |
| 2026-05-06 06:26 | -25.43858 | 23.30823 | 36176 ft | 382 kts | 285° |
| 2026-05-06 06:27 | -25.42259 | 23.25193 | 36178 ft | 382 kts | 285° |
| 2026-05-06 06:27 | -25.40673 | 23.19615 | 36183 ft | 382 kts | 285° |
| 2026-05-06 06:28 | -25.39068 | 23.13977 | 36184 ft | 382 kts | 285° |
| 2026-05-06 06:28 | -25.37470 | 23.08376 | 36185 ft | 382 kts | 285° |
| 2026-05-06 06:29 | -25.35873 | 23.02786 | 36188 ft | 382 kts | 285° |
| 2026-05-06 06:29 | -25.34272 | 22.97192 | 36193 ft | 382 kts | 285° |
| 2026-05-06 06:30 | -25.32660 | 22.91567 | 36190 ft | 383 kts | 285° |
| 2026-05-06 06:30 | -25.31058 | 22.85984 | 36196 ft | 382 kts | 285° |
| 2026-05-06 06:31 | -25.29442 | 22.80366 | 36194 ft | 383 kts | 285° |
| 2026-05-06 06:31 | -25.27833 | 22.74776 | 36194 ft | 383 kts | 285° |
| 2026-05-06 06:32 | -25.26219 | 22.69183 | 36194 ft | 383 kts | 285° |
| 2026-05-06 06:32 | -25.24596 | 22.63564 | 36198 ft | 383 kts | 285° |
| 2026-05-06 06:33 | -25.22983 | 22.57989 | 36201 ft | 383 kts | 284° |
| 2026-05-06 06:33 | -25.21356 | 22.52376 | 36199 ft | 383 kts | 284° |
| 2026-05-06 06:34 | -25.19739 | 22.46804 | 36199 ft | 383 kts | 285° |
| 2026-05-06 06:34 | -25.18114 | 22.41212 | 36199 ft | 382 kts | 284° |
| 2026-05-06 06:35 | -25.16488 | 22.35628 | 36202 ft | 382 kts | 284° |
| 2026-05-06 06:35 | -25.14862 | 22.30051 | 36201 ft | 382 kts | 284° |
| 2026-05-06 06:36 | -25.13223 | 22.24439 | 36204 ft | 382 kts | 284° |
| 2026-05-06 06:36 | -25.11585 | 22.18842 | 36205 ft | 382 kts | 284° |
| 2026-05-06 06:37 | -25.09954 | 22.13274 | 36207 ft | 382 kts | 284° |
| 2026-05-06 06:37 | -25.08318 | 22.07697 | 36211 ft | 382 kts | 284° |
| 2026-05-06 06:38 | -25.06686 | 22.02144 | 36211 ft | 382 kts | 284° |
| 2026-05-06 06:38 | -25.05037 | 21.96543 | 36209 ft | 382 kts | 284° |
| 2026-05-06 06:39 | -25.03398 | 21.90982 | 36210 ft | 382 kts | 284° |
| 2026-05-06 06:39 | -25.01747 | 21.85390 | 36212 ft | 382 kts | 284° |
| 2026-05-06 06:40 | -25.00104 | 21.79828 | 36214 ft | 382 kts | 284° |
| 2026-05-06 06:40 | -24.98457 | 21.74262 | 36213 ft | 382 kts | 284° |
| 2026-05-06 06:41 | -24.96800 | 21.68672 | 36212 ft | 383 kts | 284° |
| 2026-05-06 06:41 | -24.95151 | 21.63119 | 36215 ft | 383 kts | 284° |
| 2026-05-06 06:42 | -24.93497 | 21.57552 | 36216 ft | 383 kts | 284° |
| 2026-05-06 06:42 | -24.91833 | 21.51960 | 36216 ft | 383 kts | 284° |
| 2026-05-06 06:43 | -24.90176 | 21.46399 | 36217 ft | 383 kts | 284° |
| 2026-05-06 06:43 | -24.88517 | 21.40843 | 36213 ft | 383 kts | 284° |
| 2026-05-06 06:44 | -24.86846 | 21.35256 | 36220 ft | 383 kts | 284° |
| 2026-05-06 06:44 | -24.85184 | 21.29703 | 36214 ft | 383 kts | 284° |
| 2026-05-06 06:45 | -24.83791 | 21.25060 | 36219 ft | 383 kts | 284° |
| 2026-05-06 06:45 | -24.82113 | 21.19470 | 36213 ft | 384 kts | 284° |
| 2026-05-06 06:46 | -24.80432 | 21.13875 | 36219 ft | 384 kts | 284° |
| 2026-05-06 06:46 | -24.78756 | 21.08308 | 36210 ft | 384 kts | 284° |
| 2026-05-06 06:47 | -24.77074 | 21.02732 | 36225 ft | 384 kts | 284° |
| 2026-05-06 06:47 | -24.75395 | 20.97169 | 36220 ft | 384 kts | 284° |
| 2026-05-06 06:48 | -24.73709 | 20.91597 | 36220 ft | 385 kts | 284° |
| 2026-05-06 06:48 | -24.72011 | 20.85990 | 36220 ft | 385 kts | 284° |
| 2026-05-06 06:49 | -24.70316 | 20.80421 | 36222 ft | 385 kts | 284° |
| 2026-05-06 06:49 | -24.68619 | 20.74844 | 36220 ft | 385 kts | 284° |
| 2026-05-06 06:50 | -24.66928 | 20.69263 | 36220 ft | 385 kts | 284° |
| 2026-05-06 06:50 | -24.65221 | 20.63658 | 36222 ft | 386 kts | 284° |
| 2026-05-06 06:51 | -24.63516 | 20.58086 | 36220 ft | 386 kts | 284° |
| 2026-05-06 06:51 | -24.61808 | 20.52513 | 36216 ft | 386 kts | 284° |
| 2026-05-06 06:52 | -24.60093 | 20.46911 | 36216 ft | 386 kts | 284° |
| 2026-05-06 06:52 | -24.58388 | 20.41327 | 36217 ft | 386 kts | 284° |
| 2026-05-06 06:53 | -24.56664 | 20.35735 | 36218 ft | 387 kts | 284° |
| 2026-05-06 06:53 | -24.54936 | 20.30119 | 36220 ft | 387 kts | 284° |
| 2026-05-06 06:54 | -24.53218 | 20.24539 | 36221 ft | 387 kts | 284° |
| 2026-05-06 06:54 | -24.51487 | 20.18920 | 36220 ft | 387 kts | 284° |
| 2026-05-06 06:55 | -24.49762 | 20.13339 | 36220 ft | 387 kts | 284° |
| 2026-05-06 06:55 | -24.48037 | 20.07755 | 36223 ft | 387 kts | 284° |
| 2026-05-06 06:56 | -24.46328 | 20.02157 | 36221 ft | 388 kts | 283° |
| 2026-05-06 06:56 | -24.44598 | 19.96535 | 36224 ft | 388 kts | 283° |
| 2026-05-06 06:57 | -24.42866 | 19.90957 | 36221 ft | 388 kts | 283° |
| 2026-05-06 06:57 | -24.41112 | 19.85329 | 36231 ft | 388 kts | 283° |
| 2026-05-06 06:58 | -24.39368 | 19.79757 | 36224 ft | 388 kts | 283° |
| 2026-05-06 06:58 | -24.37611 | 19.74130 | 36229 ft | 388 kts | 283° |
| 2026-05-06 06:59 | -24.35863 | 19.68536 | 36223 ft | 388 kts | 283° |
| 2026-05-06 06:59 | -24.34108 | 19.62964 | 36221 ft | 388 kts | 283° |
| 2026-05-06 07:00 | -24.32343 | 19.57342 | 36223 ft | 388 kts | 283° |
| 2026-05-06 07:00 | -24.30589 | 19.51746 | 36228 ft | 388 kts | 283° |
| 2026-05-06 07:01 | -24.28834 | 19.46162 | 36232 ft | 389 kts | 283° |
| 2026-05-06 07:01 | -24.27063 | 19.40533 | 36232 ft | 389 kts | 283° |
| 2026-05-06 07:02 | -24.25301 | 19.34945 | 36231 ft | 389 kts | 283° |
| 2026-05-06 07:02 | -24.23536 | 19.29363 | 36236 ft | 389 kts | 283° |
| 2026-05-06 07:03 | -24.21764 | 19.23784 | 36234 ft | 389 kts | 283° |
| 2026-05-06 07:03 | -24.19982 | 19.18160 | 36234 ft | 389 kts | 283° |
| 2026-05-06 07:04 | -24.18212 | 19.12579 | 36238 ft | 389 kts | 283° |
| 2026-05-06 07:04 | -24.16436 | 19.06991 | 36240 ft | 389 kts | 283° |
| 2026-05-06 07:05 | -24.14658 | 19.01402 | 36240 ft | 389 kts | 283° |
| 2026-05-06 07:05 | -24.12878 | 18.95781 | 36241 ft | 389 kts | 283° |
| 2026-05-06 07:06 | -24.11106 | 18.90198 | 36243 ft | 389 kts | 283° |
| 2026-05-06 07:06 | -24.09328 | 18.84623 | 36243 ft | 390 kts | 283° |
| 2026-05-06 07:07 | -24.07531 | 18.79006 | 36246 ft | 390 kts | 283° |
| 2026-05-06 07:07 | -24.05732 | 18.73425 | 36247 ft | 390 kts | 283° |
| 2026-05-06 07:08 | -24.03925 | 18.67809 | 36243 ft | 390 kts | 283° |
| 2026-05-06 07:08 | -24.02146 | 18.62226 | 36247 ft | 390 kts | 283° |
| 2026-05-06 07:09 | -24.00341 | 18.56600 | 36253 ft | 390 kts | 283° |
| 2026-05-06 07:09 | -23.98546 | 18.51026 | 36252 ft | 391 kts | 283° |
| 2026-05-06 07:10 | -23.96748 | 18.45442 | 36250 ft | 391 kts | 283° |
| 2026-05-06 07:10 | -23.95505 | 18.42754 | 36266 ft | 405 kts | 297° |
| 2026-05-06 07:10 | -23.93551 | 18.40430 | 36278 ft | 423 kts | 310° |
| 2026-05-06 07:10 | -23.91114 | 18.38577 | 36287 ft | 434 kts | 317° |
| 2026-05-06 07:11 | -23.88523 | 18.36827 | 36232 ft | 436 kts | 318° |
| 2026-05-06 07:11 | -23.83309 | 18.33431 | 36240 ft | 436 kts | 319° |
| 2026-05-06 07:12 | -23.78102 | 18.30065 | 36241 ft | 437 kts | 319° |
| 2026-05-06 07:12 | -23.72883 | 18.26694 | 36241 ft | 437 kts | 319° |
| 2026-05-06 07:13 | -23.67636 | 18.23307 | 36249 ft | 437 kts | 319° |
| 2026-05-06 07:13 | -23.62422 | 18.19945 | 36250 ft | 437 kts | 319° |
| 2026-05-06 07:13 | -23.59999 | 18.18012 | 36270 ft | 419 kts | 306° |
| 2026-05-06 07:14 | -23.58268 | 18.15584 | 36281 ft | 402 kts | 291° |
| 2026-05-06 07:14 | -23.57244 | 18.12801 | 36310 ft | 390 kts | 277° |
| 2026-05-06 07:14 | -23.56718 | 18.09929 | 36242 ft | 389 kts | 276° |
| 2026-05-06 07:15 | -23.55680 | 18.04141 | 36239 ft | 387 kts | 275° |
| 2026-05-06 07:15 | -23.54732 | 17.98381 | 36250 ft | 388 kts | 275° |
| 2026-05-06 07:16 | -23.53808 | 17.92593 | 36250 ft | 388 kts | 275° |
| 2026-05-06 07:16 | -23.52886 | 17.86816 | 36247 ft | 388 kts | 275° |
| 2026-05-06 07:17 | -23.51960 | 17.81026 | 36248 ft | 388 kts | 275° |
| 2026-05-06 07:17 | -23.51027 | 17.75205 | 36248 ft | 389 kts | 275° |
| 2026-05-06 07:18 | -23.50095 | 17.69404 | 36259 ft | 389 kts | 275° |
| 2026-05-06 07:18 | -23.49162 | 17.63606 | 36259 ft | 389 kts | 275° |
| 2026-05-06 07:19 | -23.48229 | 17.57800 | 36255 ft | 390 kts | 275° |
| 2026-05-06 07:19 | -23.47291 | 17.51968 | 36256 ft | 390 kts | 275° |
| 2026-05-06 07:20 | -23.46351 | 17.46146 | 36261 ft | 391 kts | 275° |
| 2026-05-06 07:20 | -23.45406 | 17.40305 | 36260 ft | 391 kts | 275° |
| 2026-05-06 07:21 | -23.44462 | 17.34478 | 36240 ft | 392 kts | 275° |
| 2026-05-06 07:21 | -23.43513 | 17.28642 | 36254 ft | 392 kts | 275° |
| 2026-05-06 07:22 | -23.42556 | 17.22768 | 36258 ft | 393 kts | 275° |
| 2026-05-06 07:22 | -23.41599 | 17.16909 | 36256 ft | 393 kts | 275° |
| 2026-05-06 07:23 | -23.40641 | 17.11055 | 36256 ft | 394 kts | 275° |
| 2026-05-06 07:23 | -23.39677 | 17.05182 | 36258 ft | 394 kts | 276° |
| 2026-05-06 07:24 | -23.38711 | 16.99310 | 36259 ft | 395 kts | 276° |
| 2026-05-06 07:24 | -23.37743 | 16.93438 | 36257 ft | 395 kts | 276° |
| 2026-05-06 07:25 | -23.36766 | 16.87524 | 36255 ft | 396 kts | 276° |
| 2026-05-06 07:25 | -23.35789 | 16.81626 | 36251 ft | 396 kts | 276° |
| 2026-05-06 07:26 | -23.34812 | 16.75741 | 36254 ft | 397 kts | 276° |
| 2026-05-06 07:26 | -23.33823 | 16.69806 | 36253 ft | 397 kts | 276° |
| 2026-05-06 07:27 | -23.32839 | 16.63914 | 36254 ft | 397 kts | 276° |
| 2026-05-06 07:27 | -23.32346 | 16.60973 | 36249 ft | 386 kts | 276° |
| 2026-05-06 07:27 | -23.31873 | 16.58186 | 36243 ft | 366 kts | 276° |
| 2026-05-06 07:27 | -23.31424 | 16.55526 | 36219 ft | 348 kts | 276° |
| 2026-05-06 07:28 | -23.30997 | 16.52982 | 36230 ft | 336 kts | 275° |
| 2026-05-06 07:28 | -23.29736 | 16.45398 | 36260 ft | 346 kts | 276° |
| 2026-05-06 07:29 | -23.28868 | 16.40248 | 36267 ft | 347 kts | 276° |
| 2026-05-06 07:29 | -23.27996 | 16.35086 | 36213 ft | 347 kts | 276° |
| 2026-05-06 07:30 | -23.27123 | 16.29924 | 35772 ft | 355 kts | 276° |
| 2026-05-06 07:30 | -23.26666 | 16.27190 | 34420 ft | 375 kts | 276° |
| 2026-05-06 07:30 | -23.26183 | 16.24330 | 32927 ft | 390 kts | 276° |
| 2026-05-06 07:31 | -23.25686 | 16.21406 | 31441 ft | 405 kts | 275° |
| 2026-05-06 07:31 | -23.25161 | 16.18324 | 29809 ft | 419 kts | 275° |
| 2026-05-06 07:31 | -23.24807 | 16.16234 | 28599 ft | 428 kts | 275° |
| 2026-05-06 07:31 | -23.24078 | 16.11973 | 27259 ft | 423 kts | 276° |
| 2026-05-06 07:32 | -23.23538 | 16.08858 | 26674 ft | 410 kts | 276° |
| 2026-05-06 07:32 | -23.23023 | 16.05875 | 26158 ft | 397 kts | 276° |
| 2026-05-06 07:32 | -23.22691 | 16.03938 | 25841 ft | 388 kts | 276° |
| 2026-05-06 07:32 | -23.22201 | 16.01082 | 25351 ft | 377 kts | 275° |
| 2026-05-06 07:33 | -23.21575 | 15.97424 | 24686 ft | 365 kts | 275° |
| 2026-05-06 07:33 | -23.21268 | 15.95629 | 24365 ft | 360 kts | 275° |
| 2026-05-06 07:33 | -23.20815 | 15.92985 | 23890 ft | 352 kts | 275° |
| 2026-05-06 07:33 | -23.20368 | 15.90382 | 23395 ft | 347 kts | 275° |
| 2026-05-06 07:34 | -23.19925 | 15.87801 | 22976 ft | 346 kts | 275° |
| 2026-05-06 07:34 | -23.19480 | 15.85202 | 22503 ft | 351 kts | 275° |
| 2026-05-06 07:34 | -23.19035 | 15.82608 | 22037 ft | 352 kts | 275° |
| 2026-05-06 07:34 | -23.18583 | 15.79985 | 21565 ft | 351 kts | 275° |
| 2026-05-06 07:35 | -23.18137 | 15.77413 | 21107 ft | 349 kts | 276° |
| 2026-05-06 07:35 | -23.17686 | 15.74811 | 20643 ft | 347 kts | 275° |
| 2026-05-06 07:35 | -23.17244 | 15.72261 | 20184 ft | 346 kts | 275° |
| 2026-05-06 07:35 | -23.16797 | 15.69676 | 19729 ft | 345 kts | 275° |
| 2026-05-06 07:36 | -23.16350 | 15.67107 | 19261 ft | 344 kts | 275° |
| 2026-05-06 07:36 | -23.15911 | 15.64583 | 18815 ft | 343 kts | 275° |
| 2026-05-06 07:36 | -23.15469 | 15.62036 | 18336 ft | 342 kts | 275° |
| 2026-05-06 07:36 | -23.15027 | 15.59497 | 17909 ft | 339 kts | 275° |
| 2026-05-06 07:37 | -23.14591 | 15.56993 | 17433 ft | 341 kts | 275° |
| 2026-05-06 07:37 | -23.14149 | 15.54453 | 16994 ft | 340 kts | 275° |
| 2026-05-06 07:37 | -23.13704 | 15.51950 | 16547 ft | 341 kts | 276° |
| 2026-05-06 07:37 | -23.12971 | 15.49465 | 16112 ft | 348 kts | 286° |
| 2026-05-06 07:38 | -23.11984 | 15.47070 | 15616 ft | 351 kts | 288° |
| 2026-05-06 07:38 | -23.10969 | 15.44636 | 15153 ft | 351 kts | 287° |
| 2026-05-06 07:38 | -23.10001 | 15.42195 | 14681 ft | 348 kts | 286° |
| 2026-05-06 07:38 | -23.09083 | 15.39812 | 14222 ft | 343 kts | 285° |
| 2026-05-06 07:39 | -23.08177 | 15.37427 | 13749 ft | 338 kts | 285° |
| 2026-05-06 07:39 | -23.07291 | 15.35079 | 13332 ft | 331 kts | 285° |
| 2026-05-06 07:39 | -23.06422 | 15.32773 | 12886 ft | 327 kts | 285° |
| 2026-05-06 07:39 | -23.05575 | 15.30530 | 12456 ft | 322 kts | 286° |
| 2026-05-06 07:40 | -23.04730 | 15.28292 | 12037 ft | 318 kts | 286° |
| 2026-05-06 07:40 | -23.03892 | 15.26071 | 11604 ft | 315 kts | 286° |
| 2026-05-06 07:40 | -23.03064 | 15.23879 | 11194 ft | 312 kts | 287° |
| 2026-05-06 07:40 | -23.02255 | 15.21742 | 10789 ft | 309 kts | 287° |
| 2026-05-06 07:41 | -23.01438 | 15.19581 | 10385 ft | 307 kts | 287° |
| 2026-05-06 07:41 | -23.00627 | 15.17436 | 9964 ft | 305 kts | 288° |
| 2026-05-06 07:41 | -22.99831 | 15.15332 | 9565 ft | 302 kts | 288° |
| 2026-05-06 07:41 | -22.99033 | 15.13228 | 9167 ft | 299 kts | 288° |
| 2026-05-06 07:42 | -22.98241 | 15.11138 | 8764 ft | 297 kts | 288° |
| 2026-05-06 07:42 | -22.97456 | 15.09064 | 8385 ft | 296 kts | 288° |
| 2026-05-06 07:42 | -22.96682 | 15.07025 | 8002 ft | 295 kts | 289° |
| 2026-05-06 07:42 | -22.95896 | 15.04952 | 7598 ft | 295 kts | 289° |
| 2026-05-06 07:43 | -22.95124 | 15.02916 | 7213 ft | 294 kts | 289° |
| 2026-05-06 07:43 | -22.94346 | 15.00868 | 6818 ft | 293 kts | 290° |
| 2026-05-06 07:43 | -22.93569 | 14.98827 | 6403 ft | 292 kts | 290° |
| 2026-05-06 07:43 | -22.92798 | 14.96798 | 6039 ft | 288 kts | 290° |
| 2026-05-06 07:44 | -22.92036 | 14.94792 | 5660 ft | 286 kts | 290° |
| 2026-05-06 07:44 | -22.91284 | 14.92819 | 5280 ft | 284 kts | 290° |
| 2026-05-06 07:44 | -22.90560 | 14.90855 | 4880 ft | 272 kts | 283° |
| 2026-05-06 07:44 | -22.90479 | 14.88910 | 4502 ft | 250 kts | 254° |
| 2026-05-06 07:45 | -22.90981 | 14.87136 | 4257 ft | 243 kts | 245° |
| 2026-05-06 07:45 | -22.91588 | 14.85441 | 3914 ft | 244 kts | 245° |
| 2026-05-06 07:45 | -22.92184 | 14.83706 | 3589 ft | 245 kts | 246° |
| 2026-05-06 07:45 | -22.92747 | 14.81952 | 3263 ft | 247 kts | 248° |
| 2026-05-06 07:46 | -22.93288 | 14.80194 | 2904 ft | 242 kts | 248° |
| 2026-05-06 07:46 | -22.93796 | 14.78502 | 2641 ft | 232 kts | 249° |
| 2026-05-06 07:46 | -22.94268 | 14.76909 | 2339 ft | 219 kts | 249° |
| 2026-05-06 07:46 | -22.94726 | 14.75374 | 2004 ft | 209 kts | 249° |
| 2026-05-06 07:47 | -22.95165 | 14.73907 | 1749 ft | 193 kts | 249° |
| 2026-05-06 07:47 | -22.95550 | 14.72615 | 1541 ft | 174 kts | 249° |
| 2026-05-06 07:47 | -22.95918 | 14.71406 | 1249 ft | 163 kts | 249° |
| 2026-05-06 07:47 | -22.96257 | 14.70290 | 1013 ft | 151 kts | 248° |
| 2026-05-06 07:48 | -22.96577 | 14.69238 | 822 ft | 141 kts | 248° |
| 2026-05-06 07:48 | -22.96870 | 14.68264 | 625 ft | 132 kts | 249° |
| 2026-05-06 07:48 | -22.97147 | 14.67338 | 473 ft | 127 kts | 248° |
| 2026-05-06 07:48 | -22.97423 | 14.66421 | 379 ft | 129 kts | 248° |
| 2026-05-06 07:49 | -22.97695 | 14.65536 | 305 ft | 116 kts | 250° |
| 2026-05-06 07:49 | -22.97916 | 14.64796 | 288 ft | 84 kts | 252° |
| 2026-05-06 07:49 | -22.98063 | 14.64311 | 271 ft | 56 kts | 251° |
| 2026-05-06 07:49 | -22.98150 | 14.64014 | 264 ft | 20 kts | 266° |
| 2026-05-06 07:50 | -22.98060 | 14.63949 | 265 ft | 15 kts | 341° |
| 2026-05-06 07:50 | -22.97955 | 14.63912 | 265 ft | 15 kts | 342° |
| 2026-05-06 07:50 | -22.97859 | 14.63877 | 266 ft | 12 kts | 342° |
| 2026-05-06 07:50 | -22.97793 | 14.63897 | 267 ft | 10 kts | 70° |
| 2026-05-06 07:51 | -22.97797 | 14.63931 | 267 ft | 3 kts | 158° |
| 2026-05-06 07:51 | -22.97820 | 14.63937 | 267 ft | 0 kts | 161° |